sensor_id;sensor_type;location;lat;lon;timestamp;P1;durP1;ratioP1;P2;durP2;ratioP2
70576;SDS011;58138;43.138;24.702;2023-03-01T00:01:06;33.42;;;18.55;;
70576;SDS011;58138;43.138;24.702;2023-03-01T00:03:34;29.77;;;18.92;;
70576;SDS011;58138;43.138;24.702;2023-03-01T00:06:00;29.90;;;18.10;;
70576;SDS011;58138;43.138;24.702;2023-03-01T00:08:26;28.23;;;17.30;;
70576;SDS011;58138;43.138;24.702;2023-03-01T00:11:02;28.08;;;17.40;;
70576;SDS011;58138;43.138;24.702;2023-03-01T00:13:33;31.65;;;18.65;;
70576;SDS011;58138;43.138;24.702;2023-03-01T00:16:01;30.65;;;18.13;;
70576;SDS011;58138;43.138;24.702;2023-03-01T00:18:27;29.05;;;18.20;;
70576;SDS011;58138;43.138;24.702;2023-03-01T00:20:53;28.60;;;18.15;;
70576;SDS011;58138;43.138;24.702;2023-03-01T00:23:20;26.45;;;18.08;;
70576;SDS011;58138;43.138;24.702;2023-03-01T00:25:46;26.13;;;17.40;;
70576;SDS011;58138;43.138;24.702;2023-03-01T00:28:11;29.10;;;17.75;;
70576;SDS011;58138;43.138;24.702;2023-03-01T00:30:37;25.88;;;16.13;;
70576;SDS011;58138;43.138;24.702;2023-03-01T00:33:03;20.02;;;13.35;;
70576;SDS011;58138;43.138;24.702;2023-03-01T00:35:29;21.05;;;13.30;;
70576;SDS011;58138;43.138;24.702;2023-03-01T00:37:54;21.25;;;14.02;;
70576;SDS011;58138;43.138;24.702;2023-03-01T00:40:26;21.25;;;12.98;;
70576;SDS011;58138;43.138;24.702;2023-03-01T00:42:53;18.92;;;12.60;;
70576;SDS011;58138;43.138;24.702;2023-03-01T00:45:18;18.80;;;12.48;;
70576;SDS011;58138;43.138;24.702;2023-03-01T00:47:45;19.33;;;12.45;;
70576;SDS011;58138;43.138;24.702;2023-03-01T00:50:12;19.60;;;12.32;;
70576;SDS011;58138;43.138;24.702;2023-03-01T00:52:38;17.38;;;12.02;;
70576;SDS011;58138;43.138;24.702;2023-03-01T00:55:04;17.92;;;11.88;;
70576;SDS011;58138;43.138;24.702;2023-03-01T00:57:30;16.60;;;11.98;;
70576;SDS011;58138;43.138;24.702;2023-03-01T00:59:56;17.67;;;12.18;;
70576;SDS011;58138;43.138;24.702;2023-03-01T01:02:22;17.00;;;11.57;;
70576;SDS011;58138;43.138;24.702;2023-03-01T01:04:47;18.45;;;11.65;;
70576;SDS011;58138;43.138;24.702;2023-03-01T01:07:14;16.13;;;11.45;;
70576;SDS011;58138;43.138;24.702;2023-03-01T01:09:40;15.88;;;11.18;;
70576;SDS011;58138;43.138;24.702;2023-03-01T01:12:05;16.08;;;11.10;;
70576;SDS011;58138;43.138;24.702;2023-03-01T01:14:32;16.02;;;10.93;;
70576;SDS011;58138;43.138;24.702;2023-03-01T01:16:58;17.05;;;10.90;;
70576;SDS011;58138;43.138;24.702;2023-03-01T01:19:24;14.32;;;10.75;;
70576;SDS011;58138;43.138;24.702;2023-03-01T01:21:50;15.90;;;11.13;;
70576;SDS011;58138;43.138;24.702;2023-03-01T01:24:16;15.88;;;11.65;;
70576;SDS011;58138;43.138;24.702;2023-03-01T01:26:42;17.65;;;12.23;;
70576;SDS011;58138;43.138;24.702;2023-03-01T01:29:08;16.40;;;12.10;;
70576;SDS011;58138;43.138;24.702;2023-03-01T01:31:34;19.67;;;12.32;;
70576;SDS011;58138;43.138;24.702;2023-03-01T01:34:01;18.75;;;12.52;;
70576;SDS011;58138;43.138;24.702;2023-03-01T01:36:28;25.95;;;16.80;;
70576;SDS011;58138;43.138;24.702;2023-03-01T01:38:54;27.77;;;18.73;;
70576;SDS011;58138;43.138;24.702;2023-03-01T01:41:20;37.78;;;22.25;;
70576;SDS011;58138;43.138;24.702;2023-03-01T01:43:48;33.03;;;20.83;;
70576;SDS011;58138;43.138;24.702;2023-03-01T01:46:33;36.63;;;20.15;;
70576;SDS011;58138;43.138;24.702;2023-03-01T01:51:54;30.88;;;19.85;;
70576;SDS011;58138;43.138;24.702;2023-03-01T01:54:43;28.13;;;18.00;;
70576;SDS011;58138;43.138;24.702;2023-03-01T01:57:13;30.45;;;18.33;;
70576;SDS011;58138;43.138;24.702;2023-03-01T01:59:41;30.35;;;18.73;;
70576;SDS011;58138;43.138;24.702;2023-03-01T02:02:09;29.42;;;18.73;;
70576;SDS011;58138;43.138;24.702;2023-03-01T02:04:34;27.42;;;17.08;;
70576;SDS011;58138;43.138;24.702;2023-03-01T02:07:05;24.98;;;16.60;;
70576;SDS011;58138;43.138;24.702;2023-03-01T02:09:36;26.42;;;17.40;;
70576;SDS011;58138;43.138;24.702;2023-03-01T02:12:01;32.95;;;20.98;;
70576;SDS011;58138;43.138;24.702;2023-03-01T02:14:28;30.75;;;20.48;;
70576;SDS011;58138;43.138;24.702;2023-03-01T02:16:53;28.45;;;19.52;;
70576;SDS011;58138;43.138;24.702;2023-03-01T02:19:29;32.65;;;19.55;;
70576;SDS011;58138;43.138;24.702;2023-03-01T02:22:12;32.13;;;19.30;;
70576;SDS011;58138;43.138;24.702;2023-03-01T02:30:33;28.75;;;17.15;;
70576;SDS011;58138;43.138;24.702;2023-03-01T02:32:59;27.25;;;17.17;;
70576;SDS011;58138;43.138;24.702;2023-03-01T02:35:35;29.55;;;17.52;;
70576;SDS011;58138;43.138;24.702;2023-03-01T02:38:03;28.77;;;17.17;;
70576;SDS011;58138;43.138;24.702;2023-03-01T02:40:30;30.10;;;17.88;;
70576;SDS011;58138;43.138;24.702;2023-03-01T02:42:57;26.88;;;16.63;;
70576;SDS011;58138;43.138;24.702;2023-03-01T02:45:24;29.10;;;17.95;;
70576;SDS011;58138;43.138;24.702;2023-03-01T02:47:55;35.50;;;19.10;;
70576;SDS011;58138;43.138;24.702;2023-03-01T02:53:11;29.85;;;18.05;;
70576;SDS011;58138;43.138;24.702;2023-03-01T02:55:48;31.05;;;18.17;;
70576;SDS011;58138;43.138;24.702;2023-03-01T02:58:14;31.05;;;17.17;;
70576;SDS011;58138;43.138;24.702;2023-03-01T03:00:41;32.80;;;18.60;;
70576;SDS011;58138;43.138;24.702;2023-03-01T03:03:19;32.70;;;18.13;;
70576;SDS011;58138;43.138;24.702;2023-03-01T03:05:45;33.88;;;19.55;;
70576;SDS011;58138;43.138;24.702;2023-03-01T03:08:11;38.47;;;20.15;;
70576;SDS011;58138;43.138;24.702;2023-03-01T03:10:38;38.55;;;21.75;;
70576;SDS011;58138;43.138;24.702;2023-03-01T03:13:10;40.95;;;22.02;;
70576;SDS011;58138;43.138;24.702;2023-03-01T03:15:38;34.78;;;20.23;;
70576;SDS011;58138;43.138;24.702;2023-03-01T03:18:06;35.97;;;20.85;;
70576;SDS011;58138;43.138;24.702;2023-03-01T03:20:33;39.35;;;22.20;;
70576;SDS011;58138;43.138;24.702;2023-03-01T03:22:59;40.47;;;22.42;;
70576;SDS011;58138;43.138;24.702;2023-03-01T03:25:26;40.58;;;22.48;;
70576;SDS011;58138;43.138;24.702;2023-03-01T03:27:52;35.38;;;20.75;;
70576;SDS011;58138;43.138;24.702;2023-03-01T03:30:25;29.08;;;17.83;;
70576;SDS011;58138;43.138;24.702;2023-03-01T03:32:55;26.98;;;16.35;;
70576;SDS011;58138;43.138;24.702;2023-03-01T03:35:29;26.67;;;16.90;;
70576;SDS011;58138;43.138;24.702;2023-03-01T03:37:56;29.30;;;18.15;;
70576;SDS011;58138;43.138;24.702;2023-03-01T03:40:27;27.80;;;16.75;;
70576;SDS011;58138;43.138;24.702;2023-03-01T03:42:54;28.90;;;17.27;;
70576;SDS011;58138;43.138;24.702;2023-03-01T03:45:19;29.80;;;18.13;;
70576;SDS011;58138;43.138;24.702;2023-03-01T03:47:45;29.08;;;17.42;;
70576;SDS011;58138;43.138;24.702;2023-03-01T03:50:11;33.80;;;18.65;;
70576;SDS011;58138;43.138;24.702;2023-03-01T03:52:37;33.15;;;19.42;;
70576;SDS011;58138;43.138;24.702;2023-03-01T03:55:04;32.92;;;18.83;;
70576;SDS011;58138;43.138;24.702;2023-03-01T03:57:36;34.65;;;18.77;;
70576;SDS011;58138;43.138;24.702;2023-03-01T04:00:03;29.20;;;17.65;;
70576;SDS011;58138;43.138;24.702;2023-03-01T04:02:32;28.67;;;17.45;;
70576;SDS011;58138;43.138;24.702;2023-03-01T04:04:57;34.92;;;17.73;;
70576;SDS011;58138;43.138;24.702;2023-03-01T04:07:23;32.63;;;18.75;;
70576;SDS011;58138;43.138;24.702;2023-03-01T04:09:51;45.65;;;27.48;;
70576;SDS011;58138;43.138;24.702;2023-03-01T04:12:17;36.35;;;20.90;;
70576;SDS011;58138;43.138;24.702;2023-03-01T04:14:54;39.58;;;21.83;;
70576;SDS011;58138;43.138;24.702;2023-03-01T04:17:20;38.60;;;21.20;;
70576;SDS011;58138;43.138;24.702;2023-03-01T04:19:46;36.95;;;22.80;;
70576;SDS011;58138;43.138;24.702;2023-03-01T04:22:14;36.03;;;19.77;;
70576;SDS011;58138;43.138;24.702;2023-03-01T04:24:43;34.30;;;20.08;;
70576;SDS011;58138;43.138;24.702;2023-03-01T04:27:10;32.95;;;18.50;;
70576;SDS011;58138;43.138;24.702;2023-03-01T04:29:36;33.53;;;18.58;;
70576;SDS011;58138;43.138;24.702;2023-03-01T04:32:01;34.83;;;20.15;;
70576;SDS011;58138;43.138;24.702;2023-03-01T04:34:28;37.30;;;21.30;;
70576;SDS011;58138;43.138;24.702;2023-03-01T04:36:54;33.35;;;20.33;;
70576;SDS011;58138;43.138;24.702;2023-03-01T04:39:19;34.03;;;18.83;;
70576;SDS011;58138;43.138;24.702;2023-03-01T04:41:45;33.22;;;19.55;;
70576;SDS011;58138;43.138;24.702;2023-03-01T04:44:11;37.60;;;19.38;;
70576;SDS011;58138;43.138;24.702;2023-03-01T04:46:37;34.20;;;20.23;;
70576;SDS011;58138;43.138;24.702;2023-03-01T04:49:03;36.83;;;20.77;;
70576;SDS011;58138;43.138;24.702;2023-03-01T04:51:29;35.83;;;19.50;;
70576;SDS011;58138;43.138;24.702;2023-03-01T04:53:54;34.38;;;19.05;;
70576;SDS011;58138;43.138;24.702;2023-03-01T04:56:20;40.83;;;20.38;;
70576;SDS011;58138;43.138;24.702;2023-03-01T04:58:48;28.38;;;17.02;;
70576;SDS011;58138;43.138;24.702;2023-03-01T05:01:14;30.40;;;18.33;;
70576;SDS011;58138;43.138;24.702;2023-03-01T05:03:49;29.48;;;18.15;;
70576;SDS011;58138;43.138;24.702;2023-03-01T05:06:16;28.40;;;15.60;;
70576;SDS011;58138;43.138;24.702;2023-03-01T05:08:44;24.95;;;15.07;;
70576;SDS011;58138;43.138;24.702;2023-03-01T05:11:10;22.40;;;13.45;;
70576;SDS011;58138;43.138;24.702;2023-03-01T05:13:36;26.30;;;15.88;;
70576;SDS011;58138;43.138;24.702;2023-03-01T05:16:03;33.22;;;18.80;;
70576;SDS011;58138;43.138;24.702;2023-03-01T05:18:30;29.20;;;17.33;;
70576;SDS011;58138;43.138;24.702;2023-03-01T05:21:07;34.88;;;21.00;;
70576;SDS011;58138;43.138;24.702;2023-03-01T05:23:34;33.97;;;20.15;;
70576;SDS011;58138;43.138;24.702;2023-03-01T05:26:00;31.67;;;19.70;;
70576;SDS011;58138;43.138;24.702;2023-03-01T05:28:28;35.30;;;20.48;;
70576;SDS011;58138;43.138;24.702;2023-03-01T05:30:54;37.38;;;20.77;;
70576;SDS011;58138;43.138;24.702;2023-03-01T05:33:20;38.63;;;21.25;;
70576;SDS011;58138;43.138;24.702;2023-03-01T05:35:47;40.20;;;23.88;;
70576;SDS011;58138;43.138;24.702;2023-03-01T05:38:13;42.85;;;25.05;;
70576;SDS011;58138;43.138;24.702;2023-03-01T05:40:43;37.30;;;22.80;;
70576;SDS011;58138;43.138;24.702;2023-03-01T05:43:11;34.60;;;19.70;;
70576;SDS011;58138;43.138;24.702;2023-03-01T05:45:37;25.35;;;15.20;;
70576;SDS011;58138;43.138;24.702;2023-03-01T05:48:04;26.52;;;15.48;;
70576;SDS011;58138;43.138;24.702;2023-03-01T05:50:35;29.33;;;15.63;;
70576;SDS011;58138;43.138;24.702;2023-03-01T05:53:03;30.42;;;16.65;;
70576;SDS011;58138;43.138;24.702;2023-03-01T05:55:33;29.15;;;16.65;;
70576;SDS011;58138;43.138;24.702;2023-03-01T05:58:00;29.63;;;16.48;;
70576;SDS011;58138;43.138;24.702;2023-03-01T06:00:28;23.50;;;14.05;;
70576;SDS011;58138;43.138;24.702;2023-03-01T06:02:55;25.45;;;16.00;;
70576;SDS011;58138;43.138;24.702;2023-03-01T06:05:21;24.85;;;16.00;;
70576;SDS011;58138;43.138;24.702;2023-03-01T06:07:47;28.90;;;16.65;;
70576;SDS011;58138;43.138;24.702;2023-03-01T06:10:13;25.98;;;15.98;;
70576;SDS011;58138;43.138;24.702;2023-03-01T06:12:39;35.30;;;22.58;;
70576;SDS011;58138;43.138;24.702;2023-03-01T06:15:06;33.72;;;20.52;;
70576;SDS011;58138;43.138;24.702;2023-03-01T06:17:35;32.92;;;20.35;;
70576;SDS011;58138;43.138;24.702;2023-03-01T06:20:05;33.28;;;18.75;;
70576;SDS011;58138;43.138;24.702;2023-03-01T06:22:33;27.05;;;15.95;;
70576;SDS011;58138;43.138;24.702;2023-03-01T06:24:58;28.58;;;17.13;;
70576;SDS011;58138;43.138;24.702;2023-03-01T06:27:24;25.15;;;15.23;;
70576;SDS011;58138;43.138;24.702;2023-03-01T06:29:49;24.25;;;16.15;;
70576;SDS011;58138;43.138;24.702;2023-03-01T06:32:15;31.52;;;19.90;;
70576;SDS011;58138;43.138;24.702;2023-03-01T06:34:40;19.60;;;13.35;;
70576;SDS011;58138;43.138;24.702;2023-03-01T06:37:06;21.38;;;13.02;;
70576;SDS011;58138;43.138;24.702;2023-03-01T06:39:32;19.98;;;12.52;;
70576;SDS011;58138;43.138;24.702;2023-03-01T06:41:58;18.52;;;12.05;;
70576;SDS011;58138;43.138;24.702;2023-03-01T06:44:24;20.80;;;13.88;;
70576;SDS011;58138;43.138;24.702;2023-03-01T06:46:49;20.95;;;12.27;;
70576;SDS011;58138;43.138;24.702;2023-03-01T06:49:15;24.75;;;13.43;;
70576;SDS011;58138;43.138;24.702;2023-03-01T06:51:42;22.95;;;13.93;;
70576;SDS011;58138;43.138;24.702;2023-03-01T06:54:08;23.40;;;12.55;;
70576;SDS011;58138;43.138;24.702;2023-03-01T06:56:34;20.67;;;13.10;;
70576;SDS011;58138;43.138;24.702;2023-03-01T06:59:00;25.58;;;15.18;;
70576;SDS011;58138;43.138;24.702;2023-03-01T07:01:27;21.05;;;14.05;;
70576;SDS011;58138;43.138;24.702;2023-03-01T07:03:53;22.35;;;14.30;;
70576;SDS011;58138;43.138;24.702;2023-03-01T07:06:18;24.67;;;14.75;;
70576;SDS011;58138;43.138;24.702;2023-03-01T07:08:45;25.00;;;14.57;;
70576;SDS011;58138;43.138;24.702;2023-03-01T07:11:12;29.88;;;17.85;;
70576;SDS011;58138;43.138;24.702;2023-03-01T07:13:38;32.03;;;19.38;;
70576;SDS011;58138;43.138;24.702;2023-03-01T07:18:33;25.77;;;16.50;;
70576;SDS011;58138;43.138;24.702;2023-03-01T07:21:03;30.92;;;17.85;;
70576;SDS011;58138;43.138;24.702;2023-03-01T07:23:30;30.77;;;18.30;;
70576;SDS011;58138;43.138;24.702;2023-03-01T07:25:57;25.02;;;15.98;;
70576;SDS011;58138;43.138;24.702;2023-03-01T07:28:23;33.58;;;16.60;;
70576;SDS011;58138;43.138;24.702;2023-03-01T07:30:49;26.15;;;16.20;;
70576;SDS011;58138;43.138;24.702;2023-03-01T07:33:15;35.33;;;18.15;;
70576;SDS011;58138;43.138;24.702;2023-03-01T07:38:16;24.30;;;14.68;;
70576;SDS011;58138;43.138;24.702;2023-03-01T07:48:39;18.00;;;11.95;;
70576;SDS011;58138;43.138;24.702;2023-03-01T07:56:16;23.08;;;13.48;;
70576;SDS011;58138;43.138;24.702;2023-03-01T07:58:43;22.95;;;12.98;;
70576;SDS011;58138;43.138;24.702;2023-03-01T08:01:10;28.13;;;16.85;;
70576;SDS011;58138;43.138;24.702;2023-03-01T08:03:38;26.63;;;17.60;;
70576;SDS011;58138;43.138;24.702;2023-03-01T08:06:05;22.13;;;14.65;;
70576;SDS011;58138;43.138;24.702;2023-03-01T08:08:32;27.00;;;17.42;;
70576;SDS011;58138;43.138;24.702;2023-03-01T08:10:58;19.35;;;12.50;;
70576;SDS011;58138;43.138;24.702;2023-03-01T08:13:25;21.00;;;12.93;;
70576;SDS011;58138;43.138;24.702;2023-03-01T08:15:50;14.75;;;10.05;;
70576;SDS011;58138;43.138;24.702;2023-03-01T08:18:17;19.48;;;12.32;;
70576;SDS011;58138;43.138;24.702;2023-03-01T08:20:44;16.52;;;10.52;;
70576;SDS011;58138;43.138;24.702;2023-03-01T08:23:09;17.52;;;10.75;;
70576;SDS011;58138;43.138;24.702;2023-03-01T08:25:35;13.82;;;8.88;;
70576;SDS011;58138;43.138;24.702;2023-03-01T08:28:01;14.30;;;9.02;;
70576;SDS011;58138;43.138;24.702;2023-03-01T08:30:26;20.45;;;12.38;;
70576;SDS011;58138;43.138;24.702;2023-03-01T08:32:52;16.63;;;10.13;;
70576;SDS011;58138;43.138;24.702;2023-03-01T08:35:17;14.63;;;9.57;;
70576;SDS011;58138;43.138;24.702;2023-03-01T08:37:43;20.65;;;12.25;;
70576;SDS011;58138;43.138;24.702;2023-03-01T08:40:09;18.33;;;10.73;;
70576;SDS011;58138;43.138;24.702;2023-03-01T08:42:35;27.95;;;17.45;;
70576;SDS011;58138;43.138;24.702;2023-03-01T08:45:02;25.20;;;16.75;;
70576;SDS011;58138;43.138;24.702;2023-03-01T08:47:28;29.83;;;18.55;;
70576;SDS011;58138;43.138;24.702;2023-03-01T08:49:54;30.88;;;19.80;;
70576;SDS011;58138;43.138;24.702;2023-03-01T09:02:49;55.08;;;34.00;;
70576;SDS011;58138;43.138;24.702;2023-03-01T09:05:16;29.85;;;18.27;;
70576;SDS011;58138;43.138;24.702;2023-03-01T09:07:42;53.13;;;31.42;;
70576;SDS011;58138;43.138;24.702;2023-03-01T09:10:07;53.25;;;29.45;;
70576;SDS011;58138;43.138;24.702;2023-03-01T09:12:33;31.90;;;21.33;;
70576;SDS011;58138;43.138;24.702;2023-03-01T09:14:59;30.90;;;18.70;;
70576;SDS011;58138;43.138;24.702;2023-03-01T09:17:24;35.13;;;23.10;;
70576;SDS011;58138;43.138;24.702;2023-03-01T09:19:50;31.92;;;20.02;;
70576;SDS011;58138;43.138;24.702;2023-03-01T09:22:16;36.47;;;20.90;;
70576;SDS011;58138;43.138;24.702;2023-03-01T09:24:41;30.50;;;19.02;;
70576;SDS011;58138;43.138;24.702;2023-03-01T09:27:07;25.65;;;16.95;;
70576;SDS011;58138;43.138;24.702;2023-03-01T09:29:34;24.55;;;15.38;;
70576;SDS011;58138;43.138;24.702;2023-03-01T09:32:01;22.67;;;14.85;;
70576;SDS011;58138;43.138;24.702;2023-03-01T09:34:27;24.10;;;15.30;;
70576;SDS011;58138;43.138;24.702;2023-03-01T09:36:52;24.17;;;15.32;;
70576;SDS011;58138;43.138;24.702;2023-03-01T09:39:18;28.23;;;18.00;;
70576;SDS011;58138;43.138;24.702;2023-03-01T09:47:09;46.58;;;28.20;;
70576;SDS011;58138;43.138;24.702;2023-03-01T09:49:39;37.08;;;24.02;;
70576;SDS011;58138;43.138;24.702;2023-03-01T09:54:55;34.78;;;21.83;;
70576;SDS011;58138;43.138;24.702;2023-03-01T10:02:38;60.85;;;37.80;;
70576;SDS011;58138;43.138;24.702;2023-03-01T10:07:42;45.03;;;27.65;;
70576;SDS011;58138;43.138;24.702;2023-03-01T10:10:34;38.40;;;22.08;;
70576;SDS011;58138;43.138;24.702;2023-03-01T10:13:10;28.63;;;17.60;;
70576;SDS011;58138;43.138;24.702;2023-03-01T10:15:51;30.00;;;19.25;;
70576;SDS011;58138;43.138;24.702;2023-03-01T10:18:27;25.90;;;16.52;;
70576;SDS011;58138;43.138;24.702;2023-03-01T10:23:43;26.13;;;15.88;;
70576;SDS011;58138;43.138;24.702;2023-03-01T10:29:08;25.60;;;16.10;;
70576;SDS011;58138;43.138;24.702;2023-03-01T10:34:02;31.80;;;18.98;;
70576;SDS011;58138;43.138;24.702;2023-03-01T10:36:33;45.03;;;25.98;;
70576;SDS011;58138;43.138;24.702;2023-03-01T10:38:59;37.60;;;23.25;;
70576;SDS011;58138;43.138;24.702;2023-03-01T10:41:28;38.00;;;21.48;;
70576;SDS011;58138;43.138;24.702;2023-03-01T10:43:55;34.53;;;19.17;;
70576;SDS011;58138;43.138;24.702;2023-03-01T10:46:23;35.63;;;20.25;;
70576;SDS011;58138;43.138;24.702;2023-03-01T10:49:36;26.42;;;17.15;;
70576;SDS011;58138;43.138;24.702;2023-03-01T10:51:40;31.77;;;18.92;;
70576;SDS011;58138;43.138;24.702;2023-03-01T10:54:15;25.63;;;16.20;;
70576;SDS011;58138;43.138;24.702;2023-03-01T10:56:50;23.10;;;14.93;;
70576;SDS011;58138;43.138;24.702;2023-03-01T10:59:37;20.98;;;13.98;;
70576;SDS011;58138;43.138;24.702;2023-03-01T11:02:23;18.55;;;13.13;;
70576;SDS011;58138;43.138;24.702;2023-03-01T11:04:57;16.63;;;11.48;;
70576;SDS011;58138;43.138;24.702;2023-03-01T11:07:55;17.23;;;12.25;;
70576;SDS011;58138;43.138;24.702;2023-03-01T11:10:26;19.95;;;13.77;;
70576;SDS011;58138;43.138;24.702;2023-03-01T11:12:53;26.30;;;16.25;;
70576;SDS011;58138;43.138;24.702;2023-03-01T11:15:22;26.33;;;16.98;;
70576;SDS011;58138;43.138;24.702;2023-03-01T11:17:50;22.25;;;14.85;;
70576;SDS011;58138;43.138;24.702;2023-03-01T11:20:34;26.80;;;16.42;;
70576;SDS011;58138;43.138;24.702;2023-03-01T11:23:02;27.45;;;17.88;;
70576;SDS011;58138;43.138;24.702;2023-03-01T11:25:36;29.13;;;18.33;;
70576;SDS011;58138;43.138;24.702;2023-03-01T11:28:05;27.33;;;17.70;;
70576;SDS011;58138;43.138;24.702;2023-03-01T11:36:08;29.85;;;17.50;;
70576;SDS011;58138;43.138;24.702;2023-03-01T11:38:50;25.75;;;16.20;;
70576;SDS011;58138;43.138;24.702;2023-03-01T11:41:20;35.67;;;18.95;;
70576;SDS011;58138;43.138;24.702;2023-03-01T11:56:49;32.38;;;19.65;;
70576;SDS011;58138;43.138;24.702;2023-03-01T12:08:01;26.80;;;16.67;;
70576;SDS011;58138;43.138;24.702;2023-03-01T12:10:41;33.30;;;17.87;;
70576;SDS011;58138;43.138;24.702;2023-03-01T12:13:23;33.35;;;20.52;;
70576;SDS011;58138;43.138;24.702;2023-03-01T12:25:54;25.55;;;15.13;;
70576;SDS011;58138;43.138;24.702;2023-03-01T12:28:19;30.40;;;17.55;;
70576;SDS011;58138;43.138;24.702;2023-03-01T12:36:31;27.15;;;16.60;;
70576;SDS011;58138;43.138;24.702;2023-03-01T12:44:48;36.25;;;20.85;;
70576;SDS011;58138;43.138;24.702;2023-03-01T12:48:08;38.85;;;22.13;;
70576;SDS011;58138;43.138;24.702;2023-03-01T12:50:40;34.70;;;21.23;;
70576;SDS011;58138;43.138;24.702;2023-03-01T12:55:54;34.20;;;20.38;;
70576;SDS011;58138;43.138;24.702;2023-03-01T12:58:27;33.03;;;20.45;;
70576;SDS011;58138;43.138;24.702;2023-03-01T13:06:15;41.17;;;21.55;;
70576;SDS011;58138;43.138;24.702;2023-03-01T13:08:54;36.25;;;21.48;;
70576;SDS011;58138;43.138;24.702;2023-03-01T13:11:25;37.35;;;22.23;;
70576;SDS011;58138;43.138;24.702;2023-03-01T13:14:35;32.92;;;18.75;;
70576;SDS011;58138;43.138;24.702;2023-03-01T13:16:45;36.90;;;21.10;;
70576;SDS011;58138;43.138;24.702;2023-03-01T13:19:17;34.60;;;20.55;;
70576;SDS011;58138;43.138;24.702;2023-03-01T13:21:45;37.60;;;20.60;;
70576;SDS011;58138;43.138;24.702;2023-03-01T13:34:45;31.38;;;18.25;;
70576;SDS011;58138;43.138;24.702;2023-03-01T13:37:46;35.83;;;20.60;;
70576;SDS011;58138;43.138;24.702;2023-03-01T13:40:07;39.42;;;24.30;;
70576;SDS011;58138;43.138;24.702;2023-03-01T13:42:50;41.33;;;25.17;;
70576;SDS011;58138;43.138;24.702;2023-03-01T13:45:36;50.50;;;28.80;;
70576;SDS011;58138;43.138;24.702;2023-03-01T13:48:08;39.28;;;24.38;;
70576;SDS011;58138;43.138;24.702;2023-03-01T13:50:36;37.80;;;21.77;;
70576;SDS011;58138;43.138;24.702;2023-03-01T13:53:10;34.80;;;19.73;;
70576;SDS011;58138;43.138;24.702;2023-03-01T13:55:42;35.58;;;21.63;;
70576;SDS011;58138;43.138;24.702;2023-03-01T13:58:19;34.05;;;19.00;;
70576;SDS011;58138;43.138;24.702;2023-03-01T14:01:03;34.60;;;20.00;;
70576;SDS011;58138;43.138;24.702;2023-03-01T14:03:30;31.05;;;18.35;;
70576;SDS011;58138;43.138;24.702;2023-03-01T14:06:05;34.55;;;20.45;;
70576;SDS011;58138;43.138;24.702;2023-03-01T14:08:32;35.80;;;19.20;;
70576;SDS011;58138;43.138;24.702;2023-03-01T14:21:42;32.08;;;18.00;;
70576;SDS011;58138;43.138;24.702;2023-03-01T14:24:19;28.75;;;17.35;;
70576;SDS011;58138;43.138;24.702;2023-03-01T14:26:46;36.83;;;18.92;;
70576;SDS011;58138;43.138;24.702;2023-03-01T14:29:28;34.65;;;21.52;;
70576;SDS011;58138;43.138;24.702;2023-03-01T14:34:45;32.25;;;19.27;;
70576;SDS011;58138;43.138;24.702;2023-03-01T14:39:46;38.17;;;21.98;;
70576;SDS011;58138;43.138;24.702;2023-03-01T14:42:12;38.83;;;22.45;;
70576;SDS011;58138;43.138;24.702;2023-03-01T14:44:40;33.28;;;20.75;;
70576;SDS011;58138;43.138;24.702;2023-03-01T14:47:10;38.72;;;23.52;;
70576;SDS011;58138;43.138;24.702;2023-03-01T14:49:38;34.13;;;20.50;;
70576;SDS011;58138;43.138;24.702;2023-03-01T14:52:06;28.92;;;18.58;;
70576;SDS011;58138;43.138;24.702;2023-03-01T14:54:51;31.35;;;18.13;;
70576;SDS011;58138;43.138;24.702;2023-03-01T14:57:22;41.63;;;24.33;;
70576;SDS011;58138;43.138;24.702;2023-03-01T14:59:50;44.92;;;26.90;;
70576;SDS011;58138;43.138;24.702;2023-03-01T15:02:19;52.72;;;30.05;;
70576;SDS011;58138;43.138;24.702;2023-03-01T15:04:46;58.60;;;33.05;;
70576;SDS011;58138;43.138;24.702;2023-03-01T15:07:14;50.63;;;30.38;;
70576;SDS011;58138;43.138;24.702;2023-03-01T15:09:40;46.67;;;29.80;;
70576;SDS011;58138;43.138;24.702;2023-03-01T15:14:53;43.00;;;24.80;;
70576;SDS011;58138;43.138;24.702;2023-03-01T15:19:52;42.45;;;27.70;;
70576;SDS011;58138;43.138;24.702;2023-03-01T15:22:18;47.45;;;28.90;;
70576;SDS011;58138;43.138;24.702;2023-03-01T15:24:47;53.03;;;32.72;;
70576;SDS011;58138;43.138;24.702;2023-03-01T15:27:17;60.13;;;37.42;;
70576;SDS011;58138;43.138;24.702;2023-03-01T15:29:48;45.65;;;29.38;;
70576;SDS011;58138;43.138;24.702;2023-03-01T15:32:28;43.95;;;27.77;;
70576;SDS011;58138;43.138;24.702;2023-03-01T15:34:55;57.30;;;34.13;;
70576;SDS011;58138;43.138;24.702;2023-03-01T15:40:02;30.55;;;19.33;;
70576;SDS011;58138;43.138;24.702;2023-03-01T15:42:42;30.70;;;17.23;;
70576;SDS011;58138;43.138;24.702;2023-03-01T15:47:41;28.35;;;16.80;;
70576;SDS011;58138;43.138;24.702;2023-03-01T15:50:16;31.80;;;19.27;;
70576;SDS011;58138;43.138;24.702;2023-03-01T15:52:44;33.25;;;20.77;;
70576;SDS011;58138;43.138;24.702;2023-03-01T15:55:20;47.03;;;25.25;;
70576;SDS011;58138;43.138;24.702;2023-03-01T15:57:48;45.78;;;25.00;;
70576;SDS011;58138;43.138;24.702;2023-03-01T16:00:14;50.97;;;26.85;;
70576;SDS011;58138;43.138;24.702;2023-03-01T16:02:42;52.00;;;30.38;;
70576;SDS011;58138;43.138;24.702;2023-03-01T16:05:20;42.08;;;24.35;;
70576;SDS011;58138;43.138;24.702;2023-03-01T16:07:48;80.05;;;43.08;;
70576;SDS011;58138;43.138;24.702;2023-03-01T16:12:46;50.85;;;27.50;;
70576;SDS011;58138;43.138;24.702;2023-03-01T16:15:21;67.30;;;37.35;;
70576;SDS011;58138;43.138;24.702;2023-03-01T16:17:59;71.40;;;40.55;;
70576;SDS011;58138;43.138;24.702;2023-03-01T16:20:25;63.88;;;37.95;;
70576;SDS011;58138;43.138;24.702;2023-03-01T16:22:51;44.17;;;26.13;;
70576;SDS011;58138;43.138;24.702;2023-03-01T16:25:17;49.30;;;30.38;;
70576;SDS011;58138;43.138;24.702;2023-03-01T16:27:44;33.38;;;19.52;;
70576;SDS011;58138;43.138;24.702;2023-03-01T16:30:11;30.25;;;18.52;;
70576;SDS011;58138;43.138;24.702;2023-03-01T16:32:41;40.20;;;25.65;;
70576;SDS011;58138;43.138;24.702;2023-03-01T16:35:08;33.10;;;20.13;;
70576;SDS011;58138;43.138;24.702;2023-03-01T16:37:35;40.05;;;24.25;;
70576;SDS011;58138;43.138;24.702;2023-03-01T16:40:01;43.90;;;27.63;;
70576;SDS011;58138;43.138;24.702;2023-03-01T16:42:34;45.50;;;25.88;;
70576;SDS011;58138;43.138;24.702;2023-03-01T16:45:00;46.38;;;28.00;;
70576;SDS011;58138;43.138;24.702;2023-03-01T16:47:26;50.88;;;31.35;;
70576;SDS011;58138;43.138;24.702;2023-03-01T16:49:53;43.78;;;25.27;;
70576;SDS011;58138;43.138;24.702;2023-03-01T16:52:19;37.67;;;23.13;;
70576;SDS011;58138;43.138;24.702;2023-03-01T16:54:45;42.22;;;25.10;;
70576;SDS011;58138;43.138;24.702;2023-03-01T16:57:10;42.08;;;22.60;;
70576;SDS011;58138;43.138;24.702;2023-03-01T16:59:36;39.17;;;22.83;;